sensor_id;sensor_type;location;lat;lon;timestamp;P1;durP1;ratioP1;P2;durP2;ratioP2
30307;SDS011;17114;52.314;8.910;2023-02-05T00:01:45;14.60;;;7.70;;
30307;SDS011;17114;52.314;8.910;2023-02-05T00:04:14;16.27;;;8.95;;
30307;SDS011;17114;52.314;8.910;2023-02-05T00:06:43;12.80;;;8.07;;
30307;SDS011;17114;52.314;8.910;2023-02-05T00:09:10;13.35;;;7.97;;
30307;SDS011;17114;52.314;8.910;2023-02-05T00:11:38;12.63;;;8.00;;
30307;SDS011;17114;52.314;8.910;2023-02-05T00:14:06;14.20;;;9.00;;
30307;SDS011;17114;52.314;8.910;2023-02-05T00:16:35;14.35;;;8.55;;
30307;SDS011;17114;52.314;8.910;2023-02-05T00:19:08;13.77;;;8.68;;
30307;SDS011;17114;52.314;8.910;2023-02-05T00:21:35;14.38;;;8.73;;
30307;SDS011;17114;52.314;8.910;2023-02-05T00:24:03;14.13;;;8.18;;
30307;SDS011;17114;52.314;8.910;2023-02-05T00:26:30;13.60;;;8.70;;
30307;SDS011;17114;52.314;8.910;2023-02-05T00:28:58;15.90;;;8.23;;
30307;SDS011;17114;52.314;8.910;2023-02-05T00:31:26;14.82;;;8.52;;
30307;SDS011;17114;52.314;8.910;2023-02-05T00:33:54;14.15;;;8.73;;
30307;SDS011;17114;52.314;8.910;2023-02-05T00:36:22;11.65;;;7.35;;
30307;SDS011;17114;52.314;8.910;2023-02-05T00:38:50;13.27;;;7.40;;
30307;SDS011;17114;52.314;8.910;2023-02-05T00:41:20;12.50;;;7.43;;
30307;SDS011;17114;52.314;8.910;2023-02-05T00:43:48;15.18;;;7.82;;
30307;SDS011;17114;52.314;8.910;2023-02-05T00:46:15;11.02;;;6.80;;
30307;SDS011;17114;52.314;8.910;2023-02-05T00:48:44;11.95;;;6.70;;
30307;SDS011;17114;52.314;8.910;2023-02-05T00:51:12;14.77;;;7.55;;
30307;SDS011;17114;52.314;8.910;2023-02-05T00:53:42;15.38;;;7.75;;
30307;SDS011;17114;52.314;8.910;2023-02-05T00:56:09;9.48;;;6.18;;
30307;SDS011;17114;52.314;8.910;2023-02-05T00:58:40;13.02;;;6.82;;
30307;SDS011;17114;52.314;8.910;2023-02-05T01:01:13;13.68;;;6.30;;
30307;SDS011;17114;52.314;8.910;2023-02-05T01:03:41;12.98;;;6.60;;
30307;SDS011;17114;52.314;8.910;2023-02-05T01:06:09;11.00;;;6.85;;
30307;SDS011;17114;52.314;8.910;2023-02-05T01:08:37;9.93;;;6.38;;
30307;SDS011;17114;52.314;8.910;2023-02-05T01:11:06;13.82;;;7.30;;
30307;SDS011;17114;52.314;8.910;2023-02-05T01:13:37;14.55;;;8.60;;
30307;SDS011;17114;52.314;8.910;2023-02-05T01:16:05;15.35;;;8.57;;
30307;SDS011;17114;52.314;8.910;2023-02-05T01:18:33;15.43;;;8.10;;
30307;SDS011;17114;52.314;8.910;2023-02-05T01:21:00;12.00;;;8.23;;
30307;SDS011;17114;52.314;8.910;2023-02-05T01:23:29;12.88;;;7.72;;
30307;SDS011;17114;52.314;8.910;2023-02-05T01:25:56;12.40;;;8.02;;
30307;SDS011;17114;52.314;8.910;2023-02-05T01:28:25;14.13;;;7.13;;
30307;SDS011;17114;52.314;8.910;2023-02-05T01:30:54;10.45;;;6.40;;
30307;SDS011;17114;52.314;8.910;2023-02-05T01:33:22;10.13;;;6.70;;
30307;SDS011;17114;52.314;8.910;2023-02-05T01:35:50;11.23;;;6.57;;
30307;SDS011;17114;52.314;8.910;2023-02-05T01:38:19;9.35;;;5.80;;
30307;SDS011;17114;52.314;8.910;2023-02-05T01:40:48;8.43;;;5.50;;
30307;SDS011;17114;52.314;8.910;2023-02-05T01:43:17;9.00;;;5.13;;
30307;SDS011;17114;52.314;8.910;2023-02-05T01:48:21;8.90;;;5.22;;
30307;SDS011;17114;52.314;8.910;2023-02-05T01:50:57;9.55;;;4.68;;
30307;SDS011;17114;52.314;8.910;2023-02-05T01:53:29;7.65;;;4.93;;
30307;SDS011;17114;52.314;8.910;2023-02-05T01:56:00;7.68;;;5.15;;
30307;SDS011;17114;52.314;8.910;2023-02-05T01:58:37;7.28;;;4.70;;
30307;SDS011;17114;52.314;8.910;2023-02-05T02:01:25;9.00;;;5.00;;
30307;SDS011;17114;52.314;8.910;2023-02-05T02:03:54;8.18;;;4.63;;
30307;SDS011;17114;52.314;8.910;2023-02-05T02:06:25;7.80;;;4.88;;
30307;SDS011;17114;52.314;8.910;2023-02-05T02:08:53;7.38;;;4.45;;
30307;SDS011;17114;52.314;8.910;2023-02-05T02:11:20;7.18;;;4.43;;
30307;SDS011;17114;52.314;8.910;2023-02-05T02:13:49;10.05;;;4.95;;
30307;SDS011;17114;52.314;8.910;2023-02-05T02:16:19;5.88;;;4.43;;
30307;SDS011;17114;52.314;8.910;2023-02-05T02:18:47;5.47;;;4.15;;
30307;SDS011;17114;52.314;8.910;2023-02-05T02:35:12;7.03;;;4.60;;
30307;SDS011;17114;52.314;8.910;2023-02-05T02:40:24;7.63;;;4.57;;
30307;SDS011;17114;52.314;8.910;2023-02-05T02:45:40;7.35;;;4.57;;
30307;SDS011;17114;52.314;8.910;2023-02-05T02:48:13;7.13;;;4.70;;
30307;SDS011;17114;52.314;8.910;2023-02-05T02:50:44;7.65;;;4.60;;
30307;SDS011;17114;52.314;8.910;2023-02-05T02:53:19;7.35;;;4.65;;
30307;SDS011;17114;52.314;8.910;2023-02-05T02:55:55;5.72;;;4.30;;
30307;SDS011;17114;52.314;8.910;2023-02-05T02:58:29;5.93;;;4.50;;
30307;SDS011;17114;52.314;8.910;2023-02-05T03:01:02;7.05;;;4.32;;
30307;SDS011;17114;52.314;8.910;2023-02-05T03:03:31;6.15;;;4.15;;
30307;SDS011;17114;52.314;8.910;2023-02-05T03:06:03;7.97;;;4.95;;
30307;SDS011;17114;52.314;8.910;2023-02-05T03:08:36;9.50;;;5.38;;
30307;SDS011;17114;52.314;8.910;2023-02-05T03:11:28;6.75;;;5.00;;
30307;SDS011;17114;52.314;8.910;2023-02-05T03:13:55;8.05;;;4.78;;
30307;SDS011;17114;52.314;8.910;2023-02-05T03:16:24;6.72;;;4.47;;
30307;SDS011;17114;52.314;8.910;2023-02-05T03:18:52;8.45;;;5.05;;
30307;SDS011;17114;52.314;8.910;2023-02-05T03:21:26;8.27;;;5.15;;
30307;SDS011;17114;52.314;8.910;2023-02-05T03:23:58;7.15;;;4.82;;
30307;SDS011;17114;52.314;8.910;2023-02-05T03:26:26;6.90;;;4.60;;
30307;SDS011;17114;52.314;8.910;2023-02-05T03:28:55;7.28;;;4.90;;
30307;SDS011;17114;52.314;8.910;2023-02-05T03:45:25;9.18;;;4.78;;
30307;SDS011;17114;52.314;8.910;2023-02-05T03:48:04;8.93;;;4.65;;
30307;SDS011;17114;52.314;8.910;2023-02-05T03:50:40;7.55;;;4.93;;
30307;SDS011;17114;52.314;8.910;2023-02-05T03:53:31;5.35;;;4.57;;
30307;SDS011;17114;52.314;8.910;2023-02-05T03:59:02;7.65;;;4.82;;
30307;SDS011;17114;52.314;8.910;2023-02-05T04:01:30;9.82;;;5.20;;
30307;SDS011;17114;52.314;8.910;2023-02-05T04:03:58;7.63;;;4.45;;
30307;SDS011;17114;52.314;8.910;2023-02-05T04:06:25;7.72;;;4.65;;
30307;SDS011;17114;52.314;8.910;2023-02-05T04:08:52;7.20;;;4.40;;
30307;SDS011;17114;52.314;8.910;2023-02-05T04:11:19;7.80;;;4.60;;
30307;SDS011;17114;52.314;8.910;2023-02-05T04:13:47;7.63;;;4.90;;
30307;SDS011;17114;52.314;8.910;2023-02-05T04:16:14;9.15;;;4.22;;
30307;SDS011;17114;52.314;8.910;2023-02-05T04:18:41;8.95;;;4.63;;
30307;SDS011;17114;52.314;8.910;2023-02-05T04:21:09;6.32;;;4.03;;
30307;SDS011;17114;52.314;8.910;2023-02-05T04:23:36;7.72;;;4.50;;
30307;SDS011;17114;52.314;8.910;2023-02-05T04:26:03;7.07;;;4.57;;
30307;SDS011;17114;52.314;8.910;2023-02-05T04:28:30;6.53;;;4.38;;
30307;SDS011;17114;52.314;8.910;2023-02-05T04:30:58;5.00;;;3.80;;
30307;SDS011;17114;52.314;8.910;2023-02-05T04:33:25;8.65;;;4.90;;
30307;SDS011;17114;52.314;8.910;2023-02-05T04:35:56;7.70;;;4.53;;
30307;SDS011;17114;52.314;8.910;2023-02-05T04:38:24;9.40;;;4.40;;
30307;SDS011;17114;52.314;8.910;2023-02-05T04:40:51;10.18;;;5.05;;
30307;SDS011;17114;52.314;8.910;2023-02-05T04:43:18;7.78;;;4.25;;
30307;SDS011;17114;52.314;8.910;2023-02-05T04:45:45;9.00;;;4.68;;
30307;SDS011;17114;52.314;8.910;2023-02-05T04:48:12;8.77;;;4.95;;
30307;SDS011;17114;52.314;8.910;2023-02-05T04:50:39;6.65;;;4.70;;
30307;SDS011;17114;52.314;8.910;2023-02-05T04:53:06;9.00;;;4.90;;
30307;SDS011;17114;52.314;8.910;2023-02-05T04:55:34;9.75;;;4.43;;
30307;SDS011;17114;52.314;8.910;2023-02-05T04:58:01;9.30;;;5.50;;
30307;SDS011;17114;52.314;8.910;2023-02-05T05:00:29;8.98;;;4.70;;
30307;SDS011;17114;52.314;8.910;2023-02-05T05:02:56;9.40;;;4.88;;
30307;SDS011;17114;52.314;8.910;2023-02-05T05:05:23;11.20;;;5.03;;
30307;SDS011;17114;52.314;8.910;2023-02-05T05:07:50;8.18;;;4.78;;
30307;SDS011;17114;52.314;8.910;2023-02-05T05:10:18;7.45;;;4.75;;
30307;SDS011;17114;52.314;8.910;2023-02-05T05:12:45;7.55;;;4.57;;
30307;SDS011;17114;52.314;8.910;2023-02-05T05:15:12;8.60;;;5.00;;
30307;SDS011;17114;52.314;8.910;2023-02-05T05:17:39;8.65;;;4.45;;
30307;SDS011;17114;52.314;8.910;2023-02-05T05:20:06;10.27;;;4.68;;
30307;SDS011;17114;52.314;8.910;2023-02-05T05:22:33;8.13;;;4.85;;
30307;SDS011;17114;52.314;8.910;2023-02-05T05:25:01;7.85;;;4.60;;
30307;SDS011;17114;52.314;8.910;2023-02-05T05:27:28;8.40;;;4.43;;
30307;SDS011;17114;52.314;8.910;2023-02-05T05:29:55;9.98;;;5.55;;
30307;SDS011;17114;52.314;8.910;2023-02-05T05:32:22;9.10;;;5.03;;
30307;SDS011;17114;52.314;8.910;2023-02-05T05:34:49;7.75;;;4.70;;
30307;SDS011;17114;52.314;8.910;2023-02-05T05:37:16;7.55;;;4.85;;
30307;SDS011;17114;52.314;8.910;2023-02-05T05:39:44;7.97;;;4.50;;
30307;SDS011;17114;52.314;8.910;2023-02-05T05:42:29;9.98;;;4.80;;
30307;SDS011;17114;52.314;8.910;2023-02-05T05:45:34;13.05;;;5.57;;
30307;SDS011;17114;52.314;8.910;2023-02-05T05:48:02;9.93;;;4.95;;
30307;SDS011;17114;52.314;8.910;2023-02-05T05:50:29;9.85;;;5.05;;
30307;SDS011;17114;52.314;8.910;2023-02-05T05:52:56;9.02;;;5.35;;
30307;SDS011;17114;52.314;8.910;2023-02-05T05:55:23;7.47;;;4.60;;
30307;SDS011;17114;52.314;8.910;2023-02-05T05:57:50;9.32;;;4.30;;
30307;SDS011;17114;52.314;8.910;2023-02-05T06:00:17;10.13;;;5.10;;
30307;SDS011;17114;52.314;8.910;2023-02-05T06:02:45;11.07;;;5.22;;
30307;SDS011;17114;52.314;8.910;2023-02-05T06:05:12;8.57;;;5.00;;
30307;SDS011;17114;52.314;8.910;2023-02-05T06:07:39;11.80;;;5.10;;
30307;SDS011;17114;52.314;8.910;2023-02-05T06:10:06;8.10;;;4.70;;
30307;SDS011;17114;52.314;8.910;2023-02-05T06:12:33;10.90;;;5.53;;
30307;SDS011;17114;52.314;8.910;2023-02-05T06:15:01;10.07;;;4.63;;
30307;SDS011;17114;52.314;8.910;2023-02-05T06:17:28;12.55;;;5.40;;
30307;SDS011;17114;52.314;8.910;2023-02-05T06:19:55;6.97;;;4.60;;
30307;SDS011;17114;52.314;8.910;2023-02-05T06:22:22;10.63;;;4.90;;
30307;SDS011;17114;52.314;8.910;2023-02-05T06:24:49;10.20;;;4.80;;
30307;SDS011;17114;52.314;8.910;2023-02-05T06:27:16;13.40;;;4.78;;
30307;SDS011;17114;52.314;8.910;2023-02-05T06:29:43;7.03;;;4.13;;
30307;SDS011;17114;52.314;8.910;2023-02-05T06:32:10;11.55;;;4.72;;
30307;SDS011;17114;52.314;8.910;2023-02-05T06:34:37;9.20;;;4.38;;
30307;SDS011;17114;52.314;8.910;2023-02-05T06:37:04;13.13;;;4.45;;
30307;SDS011;17114;52.314;8.910;2023-02-05T06:39:31;13.00;;;4.45;;
30307;SDS011;17114;52.314;8.910;2023-02-05T06:41:58;7.82;;;4.22;;
30307;SDS011;17114;52.314;8.910;2023-02-05T06:44:25;12.98;;;5.82;;
30307;SDS011;17114;52.314;8.910;2023-02-05T06:46:52;14.32;;;4.63;;
30307;SDS011;17114;52.314;8.910;2023-02-05T06:49:19;17.88;;;7.05;;
30307;SDS011;17114;52.314;8.910;2023-02-05T06:51:47;15.85;;;5.20;;
30307;SDS011;17114;52.314;8.910;2023-02-05T06:54:14;10.90;;;5.55;;
30307;SDS011;17114;52.314;8.910;2023-02-05T06:56:41;16.98;;;5.72;;
30307;SDS011;17114;52.314;8.910;2023-02-05T06:59:09;15.40;;;5.80;;
30307;SDS011;17114;52.314;8.910;2023-02-05T07:01:36;14.27;;;6.00;;
30307;SDS011;17114;52.314;8.910;2023-02-05T07:04:03;18.17;;;6.78;;
30307;SDS011;17114;52.314;8.910;2023-02-05T07:06:30;12.02;;;5.80;;
30307;SDS011;17114;52.314;8.910;2023-02-05T07:08:57;16.48;;;6.25;;
30307;SDS011;17114;52.314;8.910;2023-02-05T07:11:24;16.17;;;6.18;;
30307;SDS011;17114;52.314;8.910;2023-02-05T07:13:55;16.20;;;7.13;;
30307;SDS011;17114;52.314;8.910;2023-02-05T07:16:22;20.42;;;7.03;;
30307;SDS011;17114;52.314;8.910;2023-02-05T07:18:49;24.08;;;7.47;;
30307;SDS011;17114;52.314;8.910;2023-02-05T07:21:18;26.52;;;6.95;;
30307;SDS011;17114;52.314;8.910;2023-02-05T07:23:45;19.95;;;7.60;;
30307;SDS011;17114;52.314;8.910;2023-02-05T07:26:13;23.33;;;7.45;;
30307;SDS011;17114;52.314;8.910;2023-02-05T07:28:41;20.10;;;8.18;;
30307;SDS011;17114;52.314;8.910;2023-02-05T07:31:10;24.95;;;8.20;;
30307;SDS011;17114;52.314;8.910;2023-02-05T07:33:41;24.75;;;8.25;;
30307;SDS011;17114;52.314;8.910;2023-02-05T07:36:10;23.33;;;8.75;;
30307;SDS011;17114;52.314;8.910;2023-02-05T07:38:39;18.25;;;8.20;;
30307;SDS011;17114;52.314;8.910;2023-02-05T07:41:06;20.60;;;8.38;;
30307;SDS011;17114;52.314;8.910;2023-02-05T07:43:36;15.40;;;8.18;;
30307;SDS011;17114;52.314;8.910;2023-02-05T07:46:05;19.15;;;8.18;;
30307;SDS011;17114;52.314;8.910;2023-02-05T07:48:34;21.52;;;8.30;;
30307;SDS011;17114;52.314;8.910;2023-02-05T07:51:02;15.93;;;7.88;;
30307;SDS011;17114;52.314;8.910;2023-02-05T07:53:29;25.55;;;9.75;;
30307;SDS011;17114;52.314;8.910;2023-02-05T07:56:00;19.63;;;9.00;;
30307;SDS011;17114;52.314;8.910;2023-02-05T07:58:28;21.10;;;8.68;;
30307;SDS011;17114;52.314;8.910;2023-02-05T08:01:00;18.20;;;9.30;;
30307;SDS011;17114;52.314;8.910;2023-02-05T08:03:28;22.30;;;9.20;;
30307;SDS011;17114;52.314;8.910;2023-02-05T08:05:56;18.38;;;9.52;;
30307;SDS011;17114;52.314;8.910;2023-02-05T08:08:23;20.23;;;10.07;;
30307;SDS011;17114;52.314;8.910;2023-02-05T08:10:58;20.48;;;9.13;;
30307;SDS011;17114;52.314;8.910;2023-02-05T08:13:30;16.20;;;8.95;;
30307;SDS011;17114;52.314;8.910;2023-02-05T08:15:57;24.25;;;9.10;;
30307;SDS011;17114;52.314;8.910;2023-02-05T08:18:25;18.45;;;8.85;;
30307;SDS011;17114;52.314;8.910;2023-02-05T08:20:52;22.98;;;10.43;;
30307;SDS011;17114;52.314;8.910;2023-02-05T08:23:20;20.38;;;9.50;;
30307;SDS011;17114;52.314;8.910;2023-02-05T08:25:54;21.17;;;9.73;;
30307;SDS011;17114;52.314;8.910;2023-02-05T08:28:23;19.13;;;10.15;;
30307;SDS011;17114;52.314;8.910;2023-02-05T08:30:51;26.02;;;10.82;;
30307;SDS011;17114;52.314;8.910;2023-02-05T08:33:19;21.38;;;9.02;;
30307;SDS011;17114;52.314;8.910;2023-02-05T08:35:47;24.33;;;10.48;;
30307;SDS011;17114;52.314;8.910;2023-02-05T08:38:14;19.60;;;10.05;;
30307;SDS011;17114;52.314;8.910;2023-02-05T08:40:41;27.98;;;11.35;;
30307;SDS011;17114;52.314;8.910;2023-02-05T08:43:08;21.70;;;10.43;;
30307;SDS011;17114;52.314;8.910;2023-02-05T08:45:35;24.90;;;10.90;;
30307;SDS011;17114;52.314;8.910;2023-02-05T08:48:03;26.10;;;11.20;;
30307;SDS011;17114;52.314;8.910;2023-02-05T08:50:30;27.15;;;11.10;;
30307;SDS011;17114;52.314;8.910;2023-02-05T08:52:57;28.90;;;10.88;;
30307;SDS011;17114;52.314;8.910;2023-02-05T08:55:24;21.95;;;11.32;;
30307;SDS011;17114;52.314;8.910;2023-02-05T08:57:51;25.90;;;12.40;;
30307;SDS011;17114;52.314;8.910;2023-02-05T09:00:19;26.50;;;11.95;;
30307;SDS011;17114;52.314;8.910;2023-02-05T09:02:46;25.33;;;11.85;;
30307;SDS011;17114;52.314;8.910;2023-02-05T09:05:14;25.45;;;12.30;;
30307;SDS011;17114;52.314;8.910;2023-02-05T09:07:41;24.25;;;11.18;;
30307;SDS011;17114;52.314;8.910;2023-02-05T09:10:09;25.15;;;11.50;;
30307;SDS011;17114;52.314;8.910;2023-02-05T09:12:38;24.02;;;12.25;;
30307;SDS011;17114;52.314;8.910;2023-02-05T09:15:06;25.17;;;11.82;;
30307;SDS011;17114;52.314;8.910;2023-02-05T09:17:34;25.17;;;11.63;;
30307;SDS011;17114;52.314;8.910;2023-02-05T09:20:01;38.90;;;14.23;;
30307;SDS011;17114;52.314;8.910;2023-02-05T09:22:29;25.50;;;11.82;;
30307;SDS011;17114;52.314;8.910;2023-02-05T09:24:56;26.70;;;12.07;;
30307;SDS011;17114;52.314;8.910;2023-02-05T09:27:23;28.23;;;12.77;;
30307;SDS011;17114;52.314;8.910;2023-02-05T09:29:51;28.00;;;13.65;;
30307;SDS011;17114;52.314;8.910;2023-02-05T09:32:18;23.70;;;13.25;;
30307;SDS011;17114;52.314;8.910;2023-02-05T09:34:45;26.63;;;12.68;;
30307;SDS011;17114;52.314;8.910;2023-02-05T09:37:14;24.13;;;12.48;;
30307;SDS011;17114;52.314;8.910;2023-02-05T09:39:42;23.10;;;12.07;;
30307;SDS011;17114;52.314;8.910;2023-02-05T09:42:32;25.85;;;13.05;;
30307;SDS011;17114;52.314;8.910;2023-02-05T09:48:26;28.20;;;14.43;;
30307;SDS011;17114;52.314;8.910;2023-02-05T09:51:36;22.85;;;14.15;;
30307;SDS011;17114;52.314;8.910;2023-02-05T09:54:12;30.80;;;13.45;;
30307;SDS011;17114;52.314;8.910;2023-02-05T09:56:52;34.63;;;13.45;;
30307;SDS011;17114;52.314;8.910;2023-02-05T09:59:24;25.13;;;13.52;;
30307;SDS011;17114;52.314;8.910;2023-02-05T10:02:00;25.52;;;13.73;;
30307;SDS011;17114;52.314;8.910;2023-02-05T10:04:46;24.45;;;13.98;;
30307;SDS011;17114;52.314;8.910;2023-02-05T10:26:26;28.23;;;14.80;;
30307;SDS011;17114;52.314;8.910;2023-02-05T10:37:19;20.92;;;12.60;;
30307;SDS011;17114;52.314;8.910;2023-02-05T10:39:50;25.88;;;13.10;;
30307;SDS011;17114;52.314;8.910;2023-02-05T10:42:23;29.70;;;13.50;;
30307;SDS011;17114;52.314;8.910;2023-02-05T10:47:58;25.05;;;13.10;;
30307;SDS011;17114;52.314;8.910;2023-02-05T10:53:17;20.20;;;11.50;;
30307;SDS011;17114;52.314;8.910;2023-02-05T10:55:47;22.35;;;12.02;;
30307;SDS011;17114;52.314;8.910;2023-02-05T10:58:22;22.08;;;13.30;;
30307;SDS011;17114;52.314;8.910;2023-02-05T11:01:15;20.35;;;12.52;;
30307;SDS011;17114;52.314;8.910;2023-02-05T11:03:50;23.77;;;13.30;;
30307;SDS011;17114;52.314;8.910;2023-02-05T11:06:20;23.10;;;14.45;;
30307;SDS011;17114;52.314;8.910;2023-02-05T11:08:50;25.02;;;13.82;;
30307;SDS011;17114;52.314;8.910;2023-02-05T11:11:24;24.23;;;14.35;;
30307;SDS011;17114;52.314;8.910;2023-02-05T11:14:01;20.85;;;12.90;;
30307;SDS011;17114;52.314;8.910;2023-02-05T11:16:37;25.33;;;14.20;;
30307;SDS011;17114;52.314;8.910;2023-02-05T11:19:20;22.92;;;12.75;;
30307;SDS011;17114;52.314;8.910;2023-02-05T11:21:52;25.83;;;13.20;;
30307;SDS011;17114;52.314;8.910;2023-02-05T11:24:28;27.48;;;13.73;;
30307;SDS011;17114;52.314;8.910;2023-02-05T11:29:58;22.38;;;13.52;;
30307;SDS011;17114;52.314;8.910;2023-02-05T11:38:47;24.42;;;14.70;;
30307;SDS011;17114;52.314;8.910;2023-02-05T11:44:26;30.00;;;13.70;;
30307;SDS011;17114;52.314;8.910;2023-02-05T11:46:56;19.38;;;11.75;;
30307;SDS011;17114;52.314;8.910;2023-02-05T11:49:32;32.97;;;15.98;;
30307;SDS011;17114;52.314;8.910;2023-02-05T11:52:10;25.73;;;13.30;;
30307;SDS011;17114;52.314;8.910;2023-02-05T11:54:42;26.23;;;14.13;;
30307;SDS011;17114;52.314;8.910;2023-02-05T11:59:57;26.52;;;14.55;;
30307;SDS011;17114;52.314;8.910;2023-02-05T12:02:44;30.52;;;15.32;;
30307;SDS011;17114;52.314;8.910;2023-02-05T12:10:33;28.33;;;15.15;;
30307;SDS011;17114;52.314;8.910;2023-02-05T12:15:58;32.50;;;18.00;;
30307;SDS011;17114;52.314;8.910;2023-02-05T12:24:41;41.80;;;19.83;;
30307;SDS011;17114;52.314;8.910;2023-02-05T12:30:24;36.13;;;18.30;;
30307;SDS011;17114;52.314;8.910;2023-02-05T12:39:00;34.42;;;18.30;;
30307;SDS011;17114;52.314;8.910;2023-02-05T12:41:55;37.22;;;19.45;;
30307;SDS011;17114;52.314;8.910;2023-02-05T12:53:37;43.70;;;23.05;;
30307;SDS011;17114;52.314;8.910;2023-02-05T12:59:30;46.25;;;27.98;;
30307;SDS011;17114;52.314;8.910;2023-02-05T13:12:56;43.78;;;22.45;;
30307;SDS011;17114;52.314;8.910;2023-02-05T13:15:29;46.63;;;23.88;;
30307;SDS011;17114;52.314;8.910;2023-02-05T13:18:16;34.72;;;19.33;;
30307;SDS011;17114;52.314;8.910;2023-02-05T13:20:54;50.90;;;23.33;;
30307;SDS011;17114;52.314;8.910;2023-02-05T13:23:42;50.40;;;26.58;;
30307;SDS011;17114;52.314;8.910;2023-02-05T13:26:31;56.95;;;28.00;;
30307;SDS011;17114;52.314;8.910;2023-02-05T13:29:25;59.67;;;27.95;;
30307;SDS011;17114;52.314;8.910;2023-02-05T13:32:01;68.93;;;31.23;;
30307;SDS011;17114;52.314;8.910;2023-02-05T13:34:41;61.05;;;32.08;;
30307;SDS011;17114;52.314;8.910;2023-02-05T13:42:38;68.03;;;30.13;;
30307;SDS011;17114;52.314;8.910;2023-02-05T13:53:30;62.92;;;30.20;;
30307;SDS011;17114;52.314;8.910;2023-02-05T13:56:27;70.65;;;32.03;;
30307;SDS011;17114;52.314;8.910;2023-02-05T13:59:19;60.30;;;28.50;;
30307;SDS011;17114;52.314;8.910;2023-02-05T14:01:59;71.05;;;31.88;;
30307;SDS011;17114;52.314;8.910;2023-02-05T14:04:36;77.53;;;35.25;;
30307;SDS011;17114;52.314;8.910;2023-02-05T14:07:21;75.85;;;33.13;;
30307;SDS011;17114;52.314;8.910;2023-02-05T14:10:19;70.78;;;32.03;;
30307;SDS011;17114;52.314;8.910;2023-02-05T14:13:10;81.30;;;35.15;;
30307;SDS011;17114;52.314;8.910;2023-02-05T14:15:55;76.80;;;34.38;;
30307;SDS011;17114;52.314;8.910;2023-02-05T14:26:43;90.43;;;33.88;;
30307;SDS011;17114;52.314;8.910;2023-02-05T14:35:03;88.70;;;34.53;;
30307;SDS011;17114;52.314;8.910;2023-02-05T14:37:52;85.60;;;32.90;;
30307;SDS011;17114;52.314;8.910;2023-02-05T14:40:32;79.65;;;33.40;;
30307;SDS011;17114;52.314;8.910;2023-02-05T14:45:48;79.68;;;30.60;;
30307;SDS011;17114;52.314;8.910;2023-02-05T14:48:23;77.07;;;32.50;;
30307;SDS011;17114;52.314;8.910;2023-02-05T14:54:04;82.03;;;32.38;;
30307;SDS011;17114;52.314;8.910;2023-02-05T14:57:06;84.43;;;32.45;;
30307;SDS011;17114;52.314;8.910;2023-02-05T14:59:52;83.00;;;31.27;;
30307;SDS011;17114;52.314;8.910;2023-02-05T15:05:35;79.90;;;30.63;;
30307;SDS011;17114;52.314;8.910;2023-02-05T15:13:34;77.65;;;30.42;;
30307;SDS011;17114;52.314;8.910;2023-02-05T15:29:51;63.95;;;26.77;;
30307;SDS011;17114;52.314;8.910;2023-02-05T15:33:09;77.53;;;27.38;;
30307;SDS011;17114;52.314;8.910;2023-02-05T15:35:50;68.88;;;27.95;;
30307;SDS011;17114;52.314;8.910;2023-02-05T15:39:07;62.05;;;25.13;;
30307;SDS011;17114;52.314;8.910;2023-02-05T15:42:08;60.17;;;25.27;;
30307;SDS011;17114;52.314;8.910;2023-02-05T15:46:01;64.95;;;26.25;;
30307;SDS011;17114;52.314;8.910;2023-02-05T15:51:40;63.80;;;26.52;;
30307;SDS011;17114;52.314;8.910;2023-02-05T15:59:41;62.65;;;26.38;;
30307;SDS011;17114;52.314;8.910;2023-02-05T16:02:27;60.63;;;27.80;;
30307;SDS011;17114;52.314;8.910;2023-02-05T16:05:02;59.88;;;28.30;;
30307;SDS011;17114;52.314;8.910;2023-02-05T16:08:16;58.95;;;25.40;;
30307;SDS011;17114;52.314;8.910;2023-02-05T16:11:37;72.95;;;28.42;;
30307;SDS011;17114;52.314;8.910;2023-02-05T16:14:24;63.20;;;27.85;;
30307;SDS011;17114;52.314;8.910;2023-02-05T16:17:49;71.30;;;30.00;;
30307;SDS011;17114;52.314;8.910;2023-02-05T16:20:28;65.63;;;29.75;;
30307;SDS011;17114;52.314;8.910;2023-02-05T16:28:51;83.93;;;32.67;;
30307;SDS011;17114;52.314;8.910;2023-02-05T16:32:36;79.45;;;29.63;;
30307;SDS011;17114;52.314;8.910;2023-02-05T16:34:55;83.25;;;31.15;;
30307;SDS011;17114;52.314;8.910;2023-02-05T16:37:26;82.20;;;31.13;;
30307;SDS011;17114;52.314;8.910;2023-02-05T16:40:02;86.13;;;32.75;;
30307;SDS011;17114;52.314;8.910;2023-02-05T16:42:38;102.07;;;35.47;;
30307;SDS011;17114;52.314;8.910;2023-02-05T16:48:21;101.47;;;34.47;;
30307;SDS011;17114;52.314;8.910;2023-02-05T16:51:00;90.20;;;34.17;;
30307;SDS011;17114;52.314;8.910;2023-02-05T16:53:35;98.97;;;35.95;;
30307;SDS011;17114;52.314;8.910;2023-02-05T16:56:15;94.63;;;37.05;;
30307;SDS011;17114;52.314;8.910;2023-02-05T16:58:50;102.50;;;36.13;;
30307;SDS011;17114;52.314;8.910;2023-02-05T17:01:26;94.28;;;36.00;;
30307;SDS011;17114;52.314;8.910;2023-02-05T17:04:04;106.97;;;36.08;;
30307;SDS011;17114;52.314;8.910;2023-02-05T17:06:54;100.95;;;36.08;;
30307;SDS011;17114;52.314;8.910;2023-02-05T17:09:28;103.90;;;37.38;;
30307;SDS011;17114;52.314;8.910;2023-02-05T17:12:22;99.53;;;36.85;;
30307;SDS011;17114;52.314;8.910;2023-02-05T17:15:02;110.22;;;37.13;;
30307;SDS011;17114;52.314;8.910;2023-02-05T17:17:51;103.88;;;34.10;;
30307;SDS011;17114;52.314;8.910;2023-02-05T17:20:21;97.72;;;33.97;;
30307;SDS011;17114;52.314;8.910;2023-02-05T17:25:34;99.40;;;33.95;;
30307;SDS011;17114;52.314;8.910;2023-02-05T17:30:31;104.05;;;34.90;;
30307;SDS011;17114;52.314;8.910;2023-02-05T17:32:59;102.53;;;35.55;;
30307;SDS011;17114;52.314;8.910;2023-02-05T17:35:30;105.70;;;35.53;;
30307;SDS011;17114;52.314;8.910;2023-02-05T17:37:59;98.65;;;34.80;;
30307;SDS011;17114;52.314;8.910;2023-02-05T17:40:26;97.22;;;35.35;;
30307;SDS011;17114;52.314;8.910;2023-02-05T17:42:54;115.82;;;37.47;;
30307;SDS011;17114;52.314;8.910;2023-02-05T17:45:25;102.55;;;35.78;;
30307;SDS011;17114;52.314;8.910;2023-02-05T17:47:56;89.00;;;34.83;;
30307;SDS011;17114;52.314;8.910;2023-02-05T17:50:23;90.07;;;33.28;;
30307;SDS011;17114;52.314;8.910;2023-02-05T17:52:50;90.30;;;33.00;;
30307;SDS011;17114;52.314;8.910;2023-02-05T17:55:18;91.82;;;34.38;;
30307;SDS011;17114;52.314;8.910;2023-02-05T17:57:47;92.57;;;33.08;;
30307;SDS011;17114;52.314;8.910;2023-02-05T18:00:16;86.57;;;32.22;;
30307;SDS011;17114;52.314;8.910;2023-02-05T18:02:49;93.95;;;34.15;;
30307;SDS011;17114;52.314;8.910;2023-02-05T18:05:16;89.95;;;34.53;;
30307;SDS011;17114;52.314;8.910;2023-02-05T18:07:50;93.90;;;33.10;;
30307;SDS011;17114;52.314;8.910;2023-02-05T18:10:24;97.82;;;32.15;;
30307;SDS011;17114;52.314;8.910;2023-02-05T18:12:57;83.88;;;30.90;;
30307;SDS011;17114;52.314;8.910;2023-02-05T18:15:26;84.82;;;31.50;;
30307;SDS011;17114;52.314;8.910;2023-02-05T18:17:55;90.88;;;33.83;;
30307;SDS011;17114;52.314;8.910;2023-02-05T18:20:22;87.57;;;32.90;;
30307;SDS011;17114;52.314;8.910;2023-02-05T18:22:49;85.78;;;31.83;;
30307;SDS011;17114;52.314;8.910;2023-02-05T18:25:16;96.90;;;35.25;;
30307;SDS011;17114;52.314;8.910;2023-02-05T18:27:53;93.28;;;34.13;;
30307;SDS011;17114;52.314;8.910;2023-02-05T18:30:21;93.88;;;34.60;;
30307;SDS011;17114;52.314;8.910;2023-02-05T18:32:50;106.85;;;34.17;;
30307;SDS011;17114;52.314;8.910;2023-02-05T18:35:17;95.03;;;34.25;;
30307;SDS011;17114;52.314;8.910;2023-02-05T18:37:44;96.03;;;34.33;;
30307;SDS011;17114;52.314;8.910;2023-02-05T18:40:11;96.80;;;35.75;;